UACC/TSE METAR and TAF weather

Enter ICAO airport designator
Station Type Date Time Source
UACC METAR 2022/05/25 01:00 UTC NOAA

UACC 250100Z 08003MPS CAVOK 13/06 Q1014 NOSIG RMK QFE729/0972


Station Type Date Time Source
UACC Decoded METAR 2022/05/25 01:00 UTC NOAA

Astana, Kazakhstan (UACC) 51-12N 071-27E
May 24, 2022 - 09:00 PM EDT / 2022.05.25 0100 UTC
Wind: from the E (080 degrees) at 7 MPH (6 KT):0
Visibility: greater than 7 mile(s):0
Temperature: 55 F (13 C)
Dew Point: 42 F (6 C)
Relative Humidity: 62%
Pressure (altimeter): 29.94 in. Hg (1014 hPa)
ob: UACC 250100Z 08003MPS CAVOK 13/06 Q1014 NOSIG RMK QFE729/0972
cycle: 1

Station Type Date Time Source
UACC TAF 2022/05/24 18:21 UTC NOAA

TAF UACC 241702Z 2418/2518 09004MPS CAVOK TX30/2509Z TN06/2423Z
TEMPO 2418/2424 VRB02MPS
BECMG 2502/2504 11006MPS
TEMPO 2504/2512 09007G12MPS

Example: see airport list